Jard Los Almendros, Puerto Rico
Current Conditions -  °F | °C
As of 12:53 AM on Tuesday 23 Dec 2014 (Local Time) from TJNR Reporting Station
Few Clouds Few Clouds  
Wind Chill: 78°   Ceiling: Unl
Heat Index: 81°   Visibility: 10mi
Dew Point: 73°   Wind: 5mph
Humidity: 84%   Direction: 100°E
Pressure: 30.04"   Gusts: NA
Location:  18.0098°N, 65.8982°W
Report Text: TJNR 230453Z AUTO 10004KT 10SM FEW020 26/23 A3004 RMK AO2 SLP172 T02560228
Loading
Personal Weather Stations






























Interactive Weather Map New forecast layout! Learn more

10-Day Weather Forecast

Advertisements
Track Severe Weather on mobile